sensor_id;sensor_type;location;lat;lon;timestamp;temperature;humidity
21602;DHT22;10963;50.934;4.668;2023-03-01T00:01:07;0.20;99.90
21602;DHT22;10963;50.934;4.668;2023-03-01T00:03:34;0.20;99.90
21602;DHT22;10963;50.934;4.668;2023-03-01T00:06:00;0.30;99.90
21602;DHT22;10963;50.934;4.668;2023-03-01T00:08:27;0.30;99.90
21602;DHT22;10963;50.934;4.668;2023-03-01T00:13:31;0.10;99.90
21602;DHT22;10963;50.934;4.668;2023-03-01T00:15:57;0.10;99.90
21602;DHT22;10963;50.934;4.668;2023-03-01T00:18:23;0.10;99.90
21602;DHT22;10963;50.934;4.668;2023-03-01T00:20:53;0.10;99.90
21602;DHT22;10963;50.934;4.668;2023-03-01T00:23:20;0.10;99.90
21602;DHT22;10963;50.934;4.668;2023-03-01T00:25:46;0.10;99.90
21602;DHT22;10963;50.934;4.668;2023-03-01T00:28:14;0.10;99.90
21602;DHT22;10963;50.934;4.668;2023-03-01T00:30:40;0.00;99.90
21602;DHT22;10963;50.934;4.668;2023-03-01T00:33:08;-0.10;99.90
21602;DHT22;10963;50.934;4.668;2023-03-01T00:35:34;-0.10;99.90
21602;DHT22;10963;50.934;4.668;2023-03-01T00:38:00;-0.10;99.90
21602;DHT22;10963;50.934;4.668;2023-03-01T00:40:28;-0.10;99.90
21602;DHT22;10963;50.934;4.668;2023-03-01T00:42:54;-0.10;99.90
21602;DHT22;10963;50.934;4.668;2023-03-01T00:45:20;-0.10;99.90
21602;DHT22;10963;50.934;4.668;2023-03-01T00:47:45;-0.20;99.90
21602;DHT22;10963;50.934;4.668;2023-03-01T00:50:13;-0.20;99.90
21602;DHT22;10963;50.934;4.668;2023-03-01T00:52:41;-0.30;99.90
21602;DHT22;10963;50.934;4.668;2023-03-01T00:55:07;-0.20;99.90
21602;DHT22;10963;50.934;4.668;2023-03-01T00:57:35;-0.20;99.90
21602;DHT22;10963;50.934;4.668;2023-03-01T01:00:01;-0.20;99.90
21602;DHT22;10963;50.934;4.668;2023-03-01T01:02:26;-0.30;99.90
21602;DHT22;10963;50.934;4.668;2023-03-01T01:04:52;-0.20;99.90
21602;DHT22;10963;50.934;4.668;2023-03-01T01:07:20;-0.20;99.90
21602;DHT22;10963;50.934;4.668;2023-03-01T01:09:46;-0.20;99.90
21602;DHT22;10963;50.934;4.668;2023-03-01T01:12:17;-0.20;99.90
21602;DHT22;10963;50.934;4.668;2023-03-01T01:14:42;-0.20;99.90
21602;DHT22;10963;50.934;4.668;2023-03-01T01:17:08;-0.20;99.90
21602;DHT22;10963;50.934;4.668;2023-03-01T01:19:34;-0.20;99.90
21602;DHT22;10963;50.934;4.668;2023-03-01T01:22:02;-0.30;99.90
21602;DHT22;10963;50.934;4.668;2023-03-01T01:24:30;-0.30;99.90
21602;DHT22;10963;50.934;4.668;2023-03-01T01:26:58;-0.30;99.90
21602;DHT22;10963;50.934;4.668;2023-03-01T01:29:26;-0.40;99.90
21602;DHT22;10963;50.934;4.668;2023-03-01T01:31:51;-0.30;99.90
21602;DHT22;10963;50.934;4.668;2023-03-01T01:34:21;-0.30;99.90
21602;DHT22;10963;50.934;4.668;2023-03-01T01:36:53;-0.30;99.90
21602;DHT22;10963;50.934;4.668;2023-03-01T01:39:22;-0.30;99.90
21602;DHT22;10963;50.934;4.668;2023-03-01T01:41:48;-0.30;99.90
21602;DHT22;10963;50.934;4.668;2023-03-01T01:44:25;-0.30;99.90
21602;DHT22;10963;50.934;4.668;2023-03-01T01:49:32;-0.40;99.90
21602;DHT22;10963;50.934;4.668;2023-03-01T01:54:42;-0.60;99.90
21602;DHT22;10963;50.934;4.668;2023-03-01T01:57:19;-0.60;99.90
21602;DHT22;10963;50.934;4.668;2023-03-01T01:59:56;-0.60;99.90
21602;DHT22;10963;50.934;4.668;2023-03-01T02:02:24;-0.60;99.90
21602;DHT22;10963;50.934;4.668;2023-03-01T02:04:58;-0.60;99.90
21602;DHT22;10963;50.934;4.668;2023-03-01T02:07:30;-0.60;99.90
21602;DHT22;10963;50.934;4.668;2023-03-01T02:09:56;-0.50;99.90
21602;DHT22;10963;50.934;4.668;2023-03-01T02:12:24;-0.50;99.90
21602;DHT22;10963;50.934;4.668;2023-03-01T02:14:50;-0.50;99.90
21602;DHT22;10963;50.934;4.668;2023-03-01T02:17:19;-0.60;99.90
21602;DHT22;10963;50.934;4.668;2023-03-01T02:22:24;-0.70;99.90
21602;DHT22;10963;50.934;4.668;2023-03-01T02:30:22;-0.80;99.90
21602;DHT22;10963;50.934;4.668;2023-03-01T02:32:50;-0.80;99.90
21602;DHT22;10963;50.934;4.668;2023-03-01T02:35:19;-0.80;99.90
21602;DHT22;10963;50.934;4.668;2023-03-01T02:37:45;-0.80;99.90
21602;DHT22;10963;50.934;4.668;2023-03-01T02:40:16;-0.80;99.90
21602;DHT22;10963;50.934;4.668;2023-03-01T02:42:54;-0.90;99.90
21602;DHT22;10963;50.934;4.668;2023-03-01T02:45:21;-1.00;99.90
21602;DHT22;10963;50.934;4.668;2023-03-01T02:47:47;-1.00;99.90
21602;DHT22;10963;50.934;4.668;2023-03-01T02:50:26;-1.00;99.90
21602;DHT22;10963;50.934;4.668;2023-03-01T02:53:01;-1.00;99.90
21602;DHT22;10963;50.934;4.668;2023-03-01T02:55:36;-1.10;99.90
21602;DHT22;10963;50.934;4.668;2023-03-01T02:58:02;-1.00;99.90
21602;DHT22;10963;50.934;4.668;2023-03-01T03:00:34;-1.10;99.90
21602;DHT22;10963;50.934;4.668;2023-03-01T03:03:01;-1.10;99.90
21602;DHT22;10963;50.934;4.668;2023-03-01T03:05:31;-1.10;99.90
21602;DHT22;10963;50.934;4.668;2023-03-01T03:07:58;-1.10;99.90
21602;DHT22;10963;50.934;4.668;2023-03-01T03:10:32;-1.10;99.90
21602;DHT22;10963;50.934;4.668;2023-03-01T03:13:03;-1.10;99.90
21602;DHT22;10963;50.934;4.668;2023-03-01T03:15:32;-1.10;99.90
21602;DHT22;10963;50.934;4.668;2023-03-01T03:18:02;-1.10;99.90
21602;DHT22;10963;50.934;4.668;2023-03-01T03:20:28;-1.10;99.90
21602;DHT22;10963;50.934;4.668;2023-03-01T03:22:57;-1.20;99.90
21602;DHT22;10963;50.934;4.668;2023-03-01T03:25:25;-1.20;99.90
21602;DHT22;10963;50.934;4.668;2023-03-01T03:27:51;-1.20;99.90
21602;DHT22;10963;50.934;4.668;2023-03-01T03:30:23;-1.20;99.90
21602;DHT22;10963;50.934;4.668;2023-03-01T03:32:49;-1.10;99.90
21602;DHT22;10963;50.934;4.668;2023-03-01T03:35:27;-1.20;99.90
21602;DHT22;10963;50.934;4.668;2023-03-01T03:37:57;-1.20;99.90
21602;DHT22;10963;50.934;4.668;2023-03-01T03:40:52;-1.20;99.90
21602;DHT22;10963;50.934;4.668;2023-03-01T03:43:22;-1.20;99.90
21602;DHT22;10963;50.934;4.668;2023-03-01T03:45:50;-1.30;99.90
21602;DHT22;10963;50.934;4.668;2023-03-01T03:48:16;-1.30;99.90
21602;DHT22;10963;50.934;4.668;2023-03-01T03:50:53;-1.20;99.90
21602;DHT22;10963;50.934;4.668;2023-03-01T03:53:25;-1.20;99.90
21602;DHT22;10963;50.934;4.668;2023-03-01T03:55:56;-1.20;99.90
21602;DHT22;10963;50.934;4.668;2023-03-01T03:58:25;-1.20;99.90
21602;DHT22;10963;50.934;4.668;2023-03-01T04:00:54;-1.30;99.90
21602;DHT22;10963;50.934;4.668;2023-03-01T04:03:22;-1.30;99.90
21602;DHT22;10963;50.934;4.668;2023-03-01T04:05:48;-1.30;99.90
21602;DHT22;10963;50.934;4.668;2023-03-01T04:08:16;-1.30;99.90
21602;DHT22;10963;50.934;4.668;2023-03-01T04:10:46;-1.30;99.90
21602;DHT22;10963;50.934;4.668;2023-03-01T04:13:20;-1.30;99.90
21602;DHT22;10963;50.934;4.668;2023-03-01T04:15:50;-1.30;99.90
21602;DHT22;10963;50.934;4.668;2023-03-01T04:18:20;-1.30;99.90
21602;DHT22;10963;50.934;4.668;2023-03-01T04:20:46;-1.30;99.90
21602;DHT22;10963;50.934;4.668;2023-03-01T04:23:16;-1.30;99.90
21602;DHT22;10963;50.934;4.668;2023-03-01T04:25:53;-1.20;99.90
21602;DHT22;10963;50.934;4.668;2023-03-01T04:28:46;-1.30;99.90
21602;DHT22;10963;50.934;4.668;2023-03-01T04:31:18;-1.30;99.90
21602;DHT22;10963;50.934;4.668;2023-03-01T04:33:51;-1.30;99.90
21602;DHT22;10963;50.934;4.668;2023-03-01T04:36:18;-1.40;99.90
21602;DHT22;10963;50.934;4.668;2023-03-01T04:38:47;-1.50;99.90
21602;DHT22;10963;50.934;4.668;2023-03-01T04:41:15;-1.60;99.90
21602;DHT22;10963;50.934;4.668;2023-03-01T04:43:42;-1.60;99.90
21602;DHT22;10963;50.934;4.668;2023-03-01T04:46:10;-1.60;99.90
21602;DHT22;10963;50.934;4.668;2023-03-01T04:48:38;-1.60;99.90
21602;DHT22;10963;50.934;4.668;2023-03-01T04:51:05;-1.60;99.90
21602;DHT22;10963;50.934;4.668;2023-03-01T04:53:32;-1.60;99.90
21602;DHT22;10963;50.934;4.668;2023-03-01T04:55:58;-1.70;99.90
21602;DHT22;10963;50.934;4.668;2023-03-01T04:58:26;-1.70;99.90
21602;DHT22;10963;50.934;4.668;2023-03-01T05:00:52;-1.60;99.90
21602;DHT22;10963;50.934;4.668;2023-03-01T05:03:18;-1.70;99.90
21602;DHT22;10963;50.934;4.668;2023-03-01T05:05:45;-1.70;99.90
21602;DHT22;10963;50.934;4.668;2023-03-01T05:08:14;-1.70;99.90
21602;DHT22;10963;50.934;4.668;2023-03-01T05:10:55;-1.70;99.90
21602;DHT22;10963;50.934;4.668;2023-03-01T05:13:21;-1.80;99.90
21602;DHT22;10963;50.934;4.668;2023-03-01T05:15:52;-1.70;99.90
21602;DHT22;10963;50.934;4.668;2023-03-01T05:18:18;-1.70;99.90
21602;DHT22;10963;50.934;4.668;2023-03-01T05:20:44;-1.60;99.90
21602;DHT22;10963;50.934;4.668;2023-03-01T05:23:12;-1.60;99.90
21602;DHT22;10963;50.934;4.668;2023-03-01T05:25:38;-1.70;99.90
21602;DHT22;10963;50.934;4.668;2023-03-01T05:28:11;-1.70;99.90
21602;DHT22;10963;50.934;4.668;2023-03-01T05:30:37;-1.60;99.90
21602;DHT22;10963;50.934;4.668;2023-03-01T05:33:04;-1.70;99.90
21602;DHT22;10963;50.934;4.668;2023-03-01T05:35:44;-1.70;99.90
21602;DHT22;10963;50.934;4.668;2023-03-01T05:38:12;-1.80;99.90
21602;DHT22;10963;50.934;4.668;2023-03-01T05:40:47;-1.80;99.90
21602;DHT22;10963;50.934;4.668;2023-03-01T05:43:15;-1.80;99.90
21602;DHT22;10963;50.934;4.668;2023-03-01T05:45:42;-1.80;99.90
21602;DHT22;10963;50.934;4.668;2023-03-01T05:48:09;-1.80;99.90
21602;DHT22;10963;50.934;4.668;2023-03-01T05:50:43;-1.80;99.90
21602;DHT22;10963;50.934;4.668;2023-03-01T05:53:14;-1.90;99.90
21602;DHT22;10963;50.934;4.668;2023-03-01T05:55:40;-1.90;99.90
21602;DHT22;10963;50.934;4.668;2023-03-01T05:58:12;-1.80;99.90
21602;DHT22;10963;50.934;4.668;2023-03-01T06:00:41;-1.80;99.90
21602;DHT22;10963;50.934;4.668;2023-03-01T06:03:11;-1.90;99.90
21602;DHT22;10963;50.934;4.668;2023-03-01T06:05:38;-1.80;99.90
21602;DHT22;10963;50.934;4.668;2023-03-01T06:08:04;-1.90;99.90
21602;DHT22;10963;50.934;4.668;2023-03-01T06:10:30;-1.90;99.90
21602;DHT22;10963;50.934;4.668;2023-03-01T06:12:56;-2.00;99.90
21602;DHT22;10963;50.934;4.668;2023-03-01T06:15:25;-2.00;99.90
21602;DHT22;10963;50.934;4.668;2023-03-01T06:17:51;-2.00;99.90
21602;DHT22;10963;50.934;4.668;2023-03-01T06:20:21;-2.10;99.90
21602;DHT22;10963;50.934;4.668;2023-03-01T06:22:48;-2.00;99.90
21602;DHT22;10963;50.934;4.668;2023-03-01T06:25:19;-2.00;99.90
21602;DHT22;10963;50.934;4.668;2023-03-01T06:27:46;-2.10;99.90
21602;DHT22;10963;50.934;4.668;2023-03-01T06:30:16;-2.10;99.90
21602;DHT22;10963;50.934;4.668;2023-03-01T06:32:42;-2.10;99.90
21602;DHT22;10963;50.934;4.668;2023-03-01T06:35:11;-2.10;99.90
21602;DHT22;10963;50.934;4.668;2023-03-01T06:37:40;-2.10;99.90
21602;DHT22;10963;50.934;4.668;2023-03-01T06:40:08;-2.00;99.90
21602;DHT22;10963;50.934;4.668;2023-03-01T06:42:48;-2.10;99.90
21602;DHT22;10963;50.934;4.668;2023-03-01T06:45:20;-2.00;99.90
21602;DHT22;10963;50.934;4.668;2023-03-01T06:47:46;-2.00;99.90
21602;DHT22;10963;50.934;4.668;2023-03-01T06:50:13;-2.10;99.90
21602;DHT22;10963;50.934;4.668;2023-03-01T06:52:39;-2.00;99.90
21602;DHT22;10963;50.934;4.668;2023-03-01T06:55:05;-2.00;99.90
21602;DHT22;10963;50.934;4.668;2023-03-01T06:57:34;-2.00;99.90
21602;DHT22;10963;50.934;4.668;2023-03-01T07:00:02;-1.90;99.90
21602;DHT22;10963;50.934;4.668;2023-03-01T07:02:28;-1.90;99.90
21602;DHT22;10963;50.934;4.668;2023-03-01T07:04:55;-1.90;99.90
21602;DHT22;10963;50.934;4.668;2023-03-01T07:07:21;-1.90;99.90
21602;DHT22;10963;50.934;4.668;2023-03-01T07:09:52;-1.90;99.90
21602;DHT22;10963;50.934;4.668;2023-03-01T07:12:21;-1.80;99.90
21602;DHT22;10963;50.934;4.668;2023-03-01T07:14:48;-1.80;99.90
21602;DHT22;10963;50.934;4.668;2023-03-01T07:17:14;-1.70;99.90
21602;DHT22;10963;50.934;4.668;2023-03-01T07:19:40;-1.70;99.90
21602;DHT22;10963;50.934;4.668;2023-03-01T07:22:06;-1.60;99.90
21602;DHT22;10963;50.934;4.668;2023-03-01T07:24:33;-1.60;99.90
21602;DHT22;10963;50.934;4.668;2023-03-01T07:27:01;-1.50;99.90
21602;DHT22;10963;50.934;4.668;2023-03-01T07:29:30;-1.50;99.90
21602;DHT22;10963;50.934;4.668;2023-03-01T07:31:55;-1.40;99.90
21602;DHT22;10963;50.934;4.668;2023-03-01T07:34:21;-1.40;99.90
21602;DHT22;10963;50.934;4.668;2023-03-01T07:36:47;-1.30;99.90
21602;DHT22;10963;50.934;4.668;2023-03-01T07:39:15;-1.20;99.90
21602;DHT22;10963;50.934;4.668;2023-03-01T07:41:41;-1.10;99.90
21602;DHT22;10963;50.934;4.668;2023-03-01T07:44:08;-1.10;99.90
21602;DHT22;10963;50.934;4.668;2023-03-01T07:46:34;-1.00;99.90
21602;DHT22;10963;50.934;4.668;2023-03-01T07:49:02;-0.90;99.90
21602;DHT22;10963;50.934;4.668;2023-03-01T07:51:33;-0.80;99.90
21602;DHT22;10963;50.934;4.668;2023-03-01T07:53:59;-0.70;99.90
21602;DHT22;10963;50.934;4.668;2023-03-01T07:56:24;-0.60;99.90
21602;DHT22;10963;50.934;4.668;2023-03-01T07:58:50;-0.60;99.90
21602;DHT22;10963;50.934;4.668;2023-03-01T08:01:18;-0.40;99.90
21602;DHT22;10963;50.934;4.668;2023-03-01T08:03:46;-0.40;99.90
21602;DHT22;10963;50.934;4.668;2023-03-01T08:06:17;-0.30;99.90
21602;DHT22;10963;50.934;4.668;2023-03-01T08:08:46;-0.20;99.90
21602;DHT22;10963;50.934;4.668;2023-03-01T08:11:15;-0.20;99.90
21602;DHT22;10963;50.934;4.668;2023-03-01T08:13:42;-0.20;99.90
21602;DHT22;10963;50.934;4.668;2023-03-01T08:16:14;-0.10;99.90
21602;DHT22;10963;50.934;4.668;2023-03-01T08:18:40;-0.10;99.90
21602;DHT22;10963;50.934;4.668;2023-03-01T08:21:10;0.00;99.90
21602;DHT22;10963;50.934;4.668;2023-03-01T08:23:41;0.00;99.90
21602;DHT22;10963;50.934;4.668;2023-03-01T08:26:13;0.10;99.90
21602;DHT22;10963;50.934;4.668;2023-03-01T08:28:40;0.10;99.90
21602;DHT22;10963;50.934;4.668;2023-03-01T08:31:25;0.30;99.90
21602;DHT22;10963;50.934;4.668;2023-03-01T08:33:56;0.40;99.90
21602;DHT22;10963;50.934;4.668;2023-03-01T08:36:23;0.50;99.90
21602;DHT22;10963;50.934;4.668;2023-03-01T08:38:52;0.50;99.90
21602;DHT22;10963;50.934;4.668;2023-03-01T08:41:17;0.60;99.90
21602;DHT22;10963;50.934;4.668;2023-03-01T08:43:44;0.70;99.90
21602;DHT22;10963;50.934;4.668;2023-03-01T08:46:10;0.70;99.90
21602;DHT22;10963;50.934;4.668;2023-03-01T08:48:35;0.90;99.90
21602;DHT22;10963;50.934;4.668;2023-03-01T08:51:15;0.90;99.90
21602;DHT22;10963;50.934;4.668;2023-03-01T08:53:42;1.00;99.90
21602;DHT22;10963;50.934;4.668;2023-03-01T08:56:08;1.20;99.90
21602;DHT22;10963;50.934;4.668;2023-03-01T08:58:37;1.30;99.90
21602;DHT22;10963;50.934;4.668;2023-03-01T09:01:12;1.40;99.90
21602;DHT22;10963;50.934;4.668;2023-03-01T09:03:39;1.50;99.90
21602;DHT22;10963;50.934;4.668;2023-03-01T09:06:06;1.60;99.90
21602;DHT22;10963;50.934;4.668;2023-03-01T09:08:42;1.70;99.90
21602;DHT22;10963;50.934;4.668;2023-03-01T09:11:12;1.90;99.90
21602;DHT22;10963;50.934;4.668;2023-03-01T09:13:39;2.00;99.90
21602;DHT22;10963;50.934;4.668;2023-03-01T09:16:06;2.20;99.90
21602;DHT22;10963;50.934;4.668;2023-03-01T09:18:35;2.30;99.90
21602;DHT22;10963;50.934;4.668;2023-03-01T09:21:11;2.50;99.90
21602;DHT22;10963;50.934;4.668;2023-03-01T09:23:41;2.70;99.90
21602;DHT22;10963;50.934;4.668;2023-03-01T09:26:19;2.80;99.90
21602;DHT22;10963;50.934;4.668;2023-03-01T09:28:49;2.80;99.90
21602;DHT22;10963;50.934;4.668;2023-03-01T09:31:16;2.80;99.90
21602;DHT22;10963;50.934;4.668;2023-03-01T09:33:45;2.90;99.90
21602;DHT22;10963;50.934;4.668;2023-03-01T09:36:16;3.10;99.90
21602;DHT22;10963;50.934;4.668;2023-03-01T09:38:48;3.20;99.90
21602;DHT22;10963;50.934;4.668;2023-03-01T09:44:18;3.30;99.90
21602;DHT22;10963;50.934;4.668;2023-03-01T09:46:43;3.20;99.90
21602;DHT22;10963;50.934;4.668;2023-03-01T09:49:21;3.30;99.90
21602;DHT22;10963;50.934;4.668;2023-03-01T09:52:00;3.40;99.90
21602;DHT22;10963;50.934;4.668;2023-03-01T09:54:28;3.50;99.90
21602;DHT22;10963;50.934;4.668;2023-03-01T10:02:26;3.70;99.90
21602;DHT22;10963;50.934;4.668;2023-03-01T10:10:43;4.10;99.90
21602;DHT22;10963;50.934;4.668;2023-03-01T10:13:35;4.10;99.90
21602;DHT22;10963;50.934;4.668;2023-03-01T10:16:13;4.20;99.90
21602;DHT22;10963;50.934;4.668;2023-03-01T10:18:41;4.10;99.90
21602;DHT22;10963;50.934;4.668;2023-03-01T10:21:17;4.10;99.90
21602;DHT22;10963;50.934;4.668;2023-03-01T10:23:44;4.20;99.90
21602;DHT22;10963;50.934;4.668;2023-03-01T10:31:25;4.60;99.90
21602;DHT22;10963;50.934;4.668;2023-03-01T10:34:04;4.70;99.90
21602;DHT22;10963;50.934;4.668;2023-03-01T10:36:39;4.70;99.90
21602;DHT22;10963;50.934;4.668;2023-03-01T10:39:21;4.70;99.90
21602;DHT22;10963;50.934;4.668;2023-03-01T10:47:08;4.80;99.90
21602;DHT22;10963;50.934;4.668;2023-03-01T10:49:39;4.70;99.90
21602;DHT22;10963;50.934;4.668;2023-03-01T10:52:21;4.70;99.90
21602;DHT22;10963;50.934;4.668;2023-03-01T10:55:01;4.70;99.90
21602;DHT22;10963;50.934;4.668;2023-03-01T10:57:38;4.80;99.90
21602;DHT22;10963;50.934;4.668;2023-03-01T11:00:21;4.80;99.90
21602;DHT22;10963;50.934;4.668;2023-03-01T11:03:12;4.90;99.90
21602;DHT22;10963;50.934;4.668;2023-03-01T11:05:52;5.00;99.90
21602;DHT22;10963;50.934;4.668;2023-03-01T11:08:48;5.20;99.90
21602;DHT22;10963;50.934;4.668;2023-03-01T11:11:32;5.40;99.90
21602;DHT22;10963;50.934;4.668;2023-03-01T11:14:03;5.50;99.90
21602;DHT22;10963;50.934;4.668;2023-03-01T11:16:37;5.60;99.90
21602;DHT22;10963;50.934;4.668;2023-03-01T11:21:38;5.50;99.90
21602;DHT22;10963;50.934;4.668;2023-03-01T11:24:12;5.60;99.90
21602;DHT22;10963;50.934;4.668;2023-03-01T11:26:44;5.70;99.90
21602;DHT22;10963;50.934;4.668;2023-03-01T11:29:32;5.70;99.90
21602;DHT22;10963;50.934;4.668;2023-03-01T11:32:04;5.70;99.90
21602;DHT22;10963;50.934;4.668;2023-03-01T11:34:40;5.70;99.90
21602;DHT22;10963;50.934;4.668;2023-03-01T11:37:38;5.80;99.90
21602;DHT22;10963;50.934;4.668;2023-03-01T11:43:33;5.90;99.90
21602;DHT22;10963;50.934;4.668;2023-03-01T12:20:15;6.80;99.90
21602;DHT22;10963;50.934;4.668;2023-03-01T12:25:55;7.20;99.90
21602;DHT22;10963;50.934;4.668;2023-03-01T12:31:39;7.10;99.90
21602;DHT22;10963;50.934;4.668;2023-03-01T12:50:24;7.20;99.90
21602;DHT22;10963;50.934;4.668;2023-03-01T12:52:58;7.10;99.90
21602;DHT22;10963;50.934;4.668;2023-03-01T12:55:37;7.10;99.90
21602;DHT22;10963;50.934;4.668;2023-03-01T12:58:29;7.10;99.90
21602;DHT22;10963;50.934;4.668;2023-03-01T13:12:02;7.10;99.90
21602;DHT22;10963;50.934;4.668;2023-03-01T13:16:57;7.30;99.90
21602;DHT22;10963;50.934;4.668;2023-03-01T13:19:27;7.40;99.90
21602;DHT22;10963;50.934;4.668;2023-03-01T13:22:00;7.50;99.90
21602;DHT22;10963;50.934;4.668;2023-03-01T13:24:43;7.70;99.90
21602;DHT22;10963;50.934;4.668;2023-03-01T13:27:10;7.70;99.90
21602;DHT22;10963;50.934;4.668;2023-03-01T13:29:56;7.80;99.90
21602;DHT22;10963;50.934;4.668;2023-03-01T13:32:29;7.80;99.90
21602;DHT22;10963;50.934;4.668;2023-03-01T13:37:45;7.60;99.90
21602;DHT22;10963;50.934;4.668;2023-03-01T13:42:47;7.70;99.90
21602;DHT22;10963;50.934;4.668;2023-03-01T13:47:57;8.10;99.90
21602;DHT22;10963;50.934;4.668;2023-03-01T13:50:29;8.20;99.90
21602;DHT22;10963;50.934;4.668;2023-03-01T13:53:00;8.20;99.90
21602;DHT22;10963;50.934;4.668;2023-03-01T13:55:40;8.20;99.90
21602;DHT22;10963;50.934;4.668;2023-03-01T14:00:55;8.20;99.90
21602;DHT22;10963;50.934;4.668;2023-03-01T14:03:21;8.10;99.90
21602;DHT22;10963;50.934;4.668;2023-03-01T14:06:20;8.10;99.90
21602;DHT22;10963;50.934;4.668;2023-03-01T14:08:48;8.00;99.90
21602;DHT22;10963;50.934;4.668;2023-03-01T14:14:36;7.80;99.90
21602;DHT22;10963;50.934;4.668;2023-03-01T14:20:11;7.80;99.90
21602;DHT22;10963;50.934;4.668;2023-03-01T14:22:41;7.90;99.90
21602;DHT22;10963;50.934;4.668;2023-03-01T14:25:28;8.00;99.90
21602;DHT22;10963;50.934;4.668;2023-03-01T14:28:23;8.10;99.90
21602;DHT22;10963;50.934;4.668;2023-03-01T14:30:53;8.10;99.90
21602;DHT22;10963;50.934;4.668;2023-03-01T14:35:54;7.90;99.90
21602;DHT22;10963;50.934;4.668;2023-03-01T14:41:22;8.30;99.90
21602;DHT22;10963;50.934;4.668;2023-03-01T14:43:58;8.30;99.90
21602;DHT22;10963;50.934;4.668;2023-03-01T14:46:31;8.20;99.90
21602;DHT22;10963;50.934;4.668;2023-03-01T14:49:17;8.20;99.90
21602;DHT22;10963;50.934;4.668;2023-03-01T14:56:47;8.00;99.90
21602;DHT22;10963;50.934;4.668;2023-03-01T14:59:15;7.90;99.90
21602;DHT22;10963;50.934;4.668;2023-03-01T15:01:44;7.90;99.90
21602;DHT22;10963;50.934;4.668;2023-03-01T15:04:12;8.00;99.90
21602;DHT22;10963;50.934;4.668;2023-03-01T15:06:39;8.10;98.80
21602;DHT22;10963;50.934;4.668;2023-03-01T15:09:10;8.10;99.40
21602;DHT22;10963;50.934;4.668;2023-03-01T15:11:40;7.90;99.50
21602;DHT22;10963;50.934;4.668;2023-03-01T15:14:40;7.90;99.90
21602;DHT22;10963;50.934;4.668;2023-03-01T15:17:24;7.90;99.20
21602;DHT22;10963;50.934;4.668;2023-03-01T15:19:52;8.00;99.60
21602;DHT22;10963;50.934;4.668;2023-03-01T15:22:17;8.00;98.90
21602;DHT22;10963;50.934;4.668;2023-03-01T15:24:48;7.90;98.70
21602;DHT22;10963;50.934;4.668;2023-03-01T15:27:17;7.90;99.10
21602;DHT22;10963;50.934;4.668;2023-03-01T15:29:59;7.80;99.50
21602;DHT22;10963;50.934;4.668;2023-03-01T15:32:29;7.90;99.90
21602;DHT22;10963;50.934;4.668;2023-03-01T15:35:32;8.00;99.90
21602;DHT22;10963;50.934;4.668;2023-03-01T15:37:50;8.00;99.30
21602;DHT22;10963;50.934;4.668;2023-03-01T15:40:30;8.00;98.80
21602;DHT22;10963;50.934;4.668;2023-03-01T15:43:08;8.00;98.60
21602;DHT22;10963;50.934;4.668;2023-03-01T15:45:58;7.90;98.10
21602;DHT22;10963;50.934;4.668;2023-03-01T15:48:26;8.00;98.20
21602;DHT22;10963;50.934;4.668;2023-03-01T15:50:58;7.90;98.50
21602;DHT22;10963;50.934;4.668;2023-03-01T15:53:24;7.80;98.70
21602;DHT22;10963;50.934;4.668;2023-03-01T15:55:54;7.80;98.50
21602;DHT22;10963;50.934;4.668;2023-03-01T15:58:22;7.80;98.60
21602;DHT22;10963;50.934;4.668;2023-03-01T16:00:51;7.70;98.60
21602;DHT22;10963;50.934;4.668;2023-03-01T16:03:23;7.60;98.50
21602;DHT22;10963;50.934;4.668;2023-03-01T16:05:50;7.70;98.50
21602;DHT22;10963;50.934;4.668;2023-03-01T16:08:17;7.70;99.10
21602;DHT22;10963;50.934;4.668;2023-03-01T16:10:43;7.70;98.40
21602;DHT22;10963;50.934;4.668;2023-03-01T16:13:13;7.60;98.80
21602;DHT22;10963;50.934;4.668;2023-03-01T16:15:41;7.60;98.80
21602;DHT22;10963;50.934;4.668;2023-03-01T16:18:09;7.60;99.40
21602;DHT22;10963;50.934;4.668;2023-03-01T16:20:40;7.50;99.80
21602;DHT22;10963;50.934;4.668;2023-03-01T16:23:07;7.40;99.90
21602;DHT22;10963;50.934;4.668;2023-03-01T16:25:35;7.50;99.90
21602;DHT22;10963;50.934;4.668;2023-03-01T16:28:01;7.40;99.90
21602;DHT22;10963;50.934;4.668;2023-03-01T16:30:36;7.40;99.90
21602;DHT22;10963;50.934;4.668;2023-03-01T16:33:02;7.40;99.90
21602;DHT22;10963;50.934;4.668;2023-03-01T16:35:32;7.40;99.90
21602;DHT22;10963;50.934;4.668;2023-03-01T16:38:00;7.50;99.90
21602;DHT22;10963;50.934;4.668;2023-03-01T16:40:28;7.50;99.90
21602;DHT22;10963;50.934;4.668;2023-03-01T16:42:57;7.50;99.90
21602;DHT22;10963;50.934;4.668;2023-03-01T16:45:32;7.40;99.90
21602;DHT22;10963;50.934;4.668;2023-03-01T16:48:01;7.30;99.90
21602;DHT22;10963;50.934;4.668;2023-03-01T16:50:27;7.30;99.90
21602;DHT22;10963;50.934;4.668;2023-03-01T16:52:52;7.30;99.90
21602;DHT22;10963;50.934;4.668;2023-03-01T16:55:21;7.20;99.90
21602;DHT22;10963;50.934;4.668;2023-03-01T16:57:49;7.10;99.90
21602;DHT22;10963;50.934;4.668;2023-03-01T17:00:15;7.00;99.90
21602;DHT22;10963;50.934;4.668;2023-03-01T17:02:43;6.90;99.90
21602;DHT22;10963;50.934;4.668;2023-03-01T17:05:10;6.80;99.90
21602;DHT22;10963;50.934;4.668;2023-03-01T17:07:37;6.90;99.90
21602;DHT22;10963;50.934;4.668;2023-03-01T17:10:05;6.80;99.90
21602;DHT22;10963;50.934;4.668;2023-03-01T17:12:33;6.70;99.90
21602;DHT22;10963;50.934;4.668;2023-03-01T17:15:02;6.60;99.90
21602;DHT22;10963;50.934;4.668;2023-03-01T17:17:28;6.60;99.90
21602;DHT22;10963;50.934;4.668;2023-03-01T17:19:53;6.50;99.90
21602;DHT22;10963;50.934;4.668;2023-03-01T17:22:19;6.50;99.90
21602;DHT22;10963;50.934;4.668;2023-03-01T17:24:47;6.50;99.90
21602;DHT22;10963;50.934;4.668;2023-03-01T17:27:13;6.40;99.90
21602;DHT22;10963;50.934;4.668;2023-03-01T17:29:42;6.40;99.90
21602;DHT22;10963;50.934;4.668;2023-03-01T17:32:11;6.30;99.90
21602;DHT22;10963;50.934;4.668;2023-03-01T17:34:36;6.30;99.90
21602;DHT22;10963;50.934;4.668;2023-03-01T17:37:04;6.20;99.90
21602;DHT22;10963;50.934;4.668;2023-03-01T17:39:30;6.10;99.90
21602;DHT22;10963;50.934;4.668;2023-03-01T17:42:03;6.10;99.90
21602;DHT22;10963;50.934;4.668;2023-03-01T17:44:31;6.20;99.90
21602;DHT22;10963;50.934;4.668;2023-03-01T17:46:59;6.10;99.90
21602;DHT22;10963;50.934;4.668;2023-03-01T17:49:24;6.00;99.90
21602;DHT22;10963;50.934;4.668;2023-03-01T17:51:50;6.00;99.90
21602;DHT22;10963;50.934;4.668;2023-03-01T17:54:18;5.90;99.90
21602;DHT22;10963;50.934;4.668;2023-03-01T17:56:46;5.80;99.90
21602;DHT22;10963;50.934;4.668;2023-03-01T17:59:14;5.70;99.90
21602;DHT22;10963;50.934;4.668;2023-03-01T18:01:42;5.70;99.90
21602;DHT22;10963;50.934;4.668;2023-03-01T18:04:08;5.70;99.90
21602;DHT22;10963;50.934;4.668;2023-03-01T18:06:35;5.70;99.90
21602;DHT22;10963;50.934;4.668;2023-03-01T18:09:00;5.80;99.90
21602;DHT22;10963;50.934;4.668;2023-03-01T18:11:26;5.70;99.90
21602;DHT22;10963;50.934;4.668;2023-03-01T18:13:53;5.60;99.90
21602;DHT22;10963;50.934;4.668;2023-03-01T18:16:22;5.60;99.90
21602;DHT22;10963;50.934;4.668;2023-03-01T18:18:53;5.60;99.90
21602;DHT22;10963;50.934;4.668;2023-03-01T18:21:19;5.60;99.90
21602;DHT22;10963;50.934;4.668;2023-03-01T18:23:48;5.50;99.90